Time;durP1;ratioP1;P1;durP2;ratioP2;P2;SDS_P1;SDS_P2;PMS_P1;PMS_P2;Temp;Humidity;BMP_temperature;BMP_pressure;BME280_temperature;BME280_humidity;BME280_pressure;Samples;Min_cycle;Max_cycle;Signal;HPM_P1;HPM_P2
2022/12/04 00:00:12;;;;;;;42.00;23.30;;;1.10;99.90;;;;;;5057776;28;20182;-64
2022/12/04 00:02:38;;;;;;;43.88;26.38;;;1.20;99.90;;;;;;5021874;28;20067;-64
2022/12/04 00:05:04;;;;;;;26.52;14.80;;;1.20;99.90;;;;;;5021366;28;20438;-65
2022/12/04 00:07:30;;;;;;;44.38;25.98;;;1.30;99.90;;;;;;5057195;28;20033;-65
2022/12/04 00:09:55;;;;;;;43.50;26.42;;;1.20;99.90;;;;;;5003012;28;20047;-64
2022/12/04 00:12:21;;;;;;;37.33;21.23;;;1.10;99.90;;;;;;5037076;28;20207;-65
2022/12/04 00:14:47;;;;;;;42.20;22.23;;;1.30;99.90;;;;;;5037740;28;20036;-65
2022/12/04 00:17:13;;;;;;;27.30;14.35;;;1.20;99.90;;;;;;5020052;28;20068;-65
2022/12/04 00:19:39;;;;;;;45.80;27.75;;;1.20;99.90;;;;;;5016927;28;20127;-64
2022/12/04 00:22:04;;;;;;;45.15;25.80;;;1.20;99.90;;;;;;5020347;28;20119;-66
2022/12/04 00:24:30;;;;;;;37.95;22.10;;;1.10;99.90;;;;;;5037020;28;20516;-65
2022/12/04 00:26:56;;;;;;;43.20;22.38;;;1.10;99.90;;;;;;5036008;28;20048;-66
2022/12/04 00:29:21;;;;;;;45.63;26.42;;;1.10;99.90;;;;;;5036834;28;20443;-65
2022/12/04 00:31:47;;;;;;;42.47;22.70;;;1.00;99.90;;;;;;5054417;28;20048;-64
2022/12/04 00:34:13;;;;;;;34.20;19.13;;;1.00;99.90;;;;;;5053581;28;20104;-64
2022/12/04 00:36:39;;;;;;;44.28;25.73;;;1.00;99.90;;;;;;5034713;28;20043;-65
2022/12/04 00:39:04;;;;;;;35.17;18.17;;;1.00;99.90;;;;;;5036801;28;20115;-65
2022/12/04 00:41:31;;;;;;;37.03;18.60;;;1.10;99.90;;;;;;5052634;28;20459;-64
2022/12/04 00:43:58;;;;;;;48.22;27.30;;;1.10;99.90;;;;;;5036831;28;20048;-65
2022/12/04 00:46:25;;;;;;;43.40;22.17;;;1.00;99.90;;;;;;5056862;28;20624;-64
2022/12/04 00:48:51;;;;;;;48.20;27.50;;;1.00;99.90;;;;;;5054839;28;20040;-65
2022/12/04 00:51:23;;;;;;;35.17;18.08;;;1.10;99.90;;;;;;5018078;28;20040;-65
2022/12/04 00:53:50;;;;;;;34.28;18.20;;;1.00;99.90;;;;;;5053305;28;20044;-64
2022/12/04 00:56:20;;;;;;;44.03;25.27;;;1.00;99.90;;;;;;5036206;28;20510;-65
2022/12/04 00:58:46;;;;;;;40.95;22.13;;;0.90;99.90;;;;;;5035790;28;20079;-65
2022/12/04 01:01:18;;;;;;;47.35;24.90;;;1.00;99.90;;;;;;5019584;28;20279;-65
2022/12/04 01:03:44;;;;;;;44.92;24.23;;;1.00;99.90;;;;;;5035785;28;20044;-66
2022/12/04 01:06:21;;;;;;;50.78;27.08;;;0.90;99.90;;;;;;5053045;28;20270;-64
2022/12/04 01:08:48;;;;;;;44.63;24.10;;;0.90;99.90;;;;;;5041562;28;20097;-66
2022/12/04 01:11:18;;;;;;;40.92;22.10;;;1.00;99.90;;;;;;5038491;28;20036;-64
2022/12/04 01:13:44;;;;;;;43.25;26.17;;;0.90;99.90;;;;;;5055646;28;20437;-65
2022/12/04 01:16:19;;;;;;;39.03;21.50;;;0.80;99.90;;;;;;5056533;28;20040;-65
2022/12/04 01:18:45;;;;;;;42.05;23.30;;;0.80;99.90;;;;;;5020438;28;20040;-65
2022/12/04 01:21:11;;;;;;;43.63;24.75;;;0.80;99.90;;;;;;5034077;28;20592;-66
2022/12/04 01:23:36;;;;;;;48.72;27.85;;;0.70;99.90;;;;;;5033591;28;20242;-63
2022/12/04 01:26:02;;;;;;;35.67;17.45;;;0.70;99.90;;;;;;5036410;28;20215;-64
2022/12/04 01:28:28;;;;;;;43.35;20.52;;;0.60;99.90;;;;;;5013059;28;20099;-65
2022/12/04 01:31:01;;;;;;;42.35;24.90;;;0.70;99.90;;;;;;5055395;28;20036;-65
2022/12/04 01:33:27;;;;;;;43.88;22.45;;;0.70;99.90;;;;;;5055453;28;20052;-63
2022/12/04 01:35:55;;;;;;;44.22;26.60;;;0.70;99.90;;;;;;5036230;28;20032;-64
2022/12/04 01:38:20;;;;;;;40.33;23.42;;;0.80;99.90;;;;;;5037000;28;20044;-64
2022/12/04 01:40:46;;;;;;;39.22;20.13;;;0.70;99.90;;;;;;5037065;28;20052;-64
2022/12/04 01:43:13;;;;;;;44.83;25.00;;;0.70;99.90;;;;;;5036809;28;20052;-64
2022/12/04 01:46:07;;;;;;;42.10;23.70;;;0.80;99.90;;;;;;5056688;28;20102;-64
2022/12/04 01:48:48;;;;;;;;;;;0.70;99.90;;;;;;5016009;28;20059;-64
2022/12/04 01:51:19;;;;;;;46.83;26.98;;;0.70;99.90;;;;;;5054281;28;19963;-64
2022/12/04 01:53:50;;;;;;;39.60;22.23;;;0.70;99.90;;;;;;5055884;28;20124;-65
2022/12/04 01:56:18;;;;;;;33.80;18.70;;;0.60;99.90;;;;;;5038267;28;20041;-64
2022/12/04 01:58:49;;;;;;;42.38;21.90;;;0.70;99.90;;;;;;5059287;28;20757;-64
2022/12/04 02:01:15;;;;;;;45.60;26.33;;;0.70;99.90;;;;;;5041732;28;20775;-65
2022/12/04 02:03:41;;;;;;;33.08;16.25;;;0.60;99.90;;;;;;5040907;28;20383;-65
2022/12/04 02:06:07;;;;;;;26.88;12.18;;;0.60;99.90;;;;;;5039040;28;20521;-65
2022/12/04 02:08:34;;;;;;;33.65;17.23;;;0.70;99.90;;;;;;5038906;28;20502;-66
2022/12/04 02:11:42;;;;;;;25.77;13.18;;;0.60;99.90;;;;;;5056464;28;20072;-64
2022/12/04 02:14:29;;;;;;;43.30;23.95;;;0.70;99.90;;;;;;5039146;28;20048;-65
2022/12/04 02:17:16;;;;;;;45.10;26.58;;;0.70;99.90;;;;;;5041093;28;20098;-64
2022/12/04 02:19:56;;;;;;;34.20;18.38;;;0.60;99.90;;;;;;5029364;28;20799;-63
2022/12/04 02:22:49;;;;;;;37.65;20.38;;;0.70;99.90;;;;;;5055666;28;20493;-65
2022/12/04 02:25:39;;;;;;;43.53;25.80;;;0.70;99.90;;;;;;5039092;28;21115;-64
2022/12/04 02:28:27;;;;;;;50.20;27.92;;;0.60;99.90;;;;;;5038067;28;20067;-65
2022/12/04 02:30:58;;;;;;;38.10;20.08;;;0.60;99.90;;;;;;5020942;28;20041;-64
2022/12/04 02:33:41;;;;;;;44.97;28.15;;;0.50;99.90;;;;;;5022095;28;20078;-64
2022/12/04 02:36:23;;;;;;;39.42;20.92;;;0.60;99.90;;;;;;5022318;28;20063;-64
2022/12/04 02:39:08;;;;;;;44.20;23.98;;;0.50;99.90;;;;;;5037432;28;20044;-66
2022/12/04 02:41:43;;;;;;;36.08;21.20;;;0.50;99.90;;;;;;5055998;28;20040;-65
2022/12/04 02:44:36;;;;;;;50.00;30.77;;;0.50;99.90;;;;;;5039175;28;20129;-63
2022/12/04 02:47:09;;;;;;;51.83;30.13;;;0.50;99.90;;;;;;5057131;28;20041;-64
2022/12/04 02:49:45;;;;;;;45.90;25.65;;;0.50;99.90;;;;;;5039090;28;20123;-63
2022/12/04 02:52:17;;;;;;;54.55;31.90;;;0.50;99.90;;;;;;5057267;28;20044;-63
2022/12/04 02:54:48;;;;;;;53.38;30.05;;;0.50;99.90;;;;;;5038247;28;20036;-65
2022/12/04 02:57:23;;;;;;;50.28;28.15;;;0.40;99.90;;;;;;5038144;28;20050;-66
2022/12/04 02:59:51;;;;;;;51.00;32.60;;;0.50;99.90;;;;;;5035313;28;20049;-63
2022/12/04 03:02:26;;;;;;;37.80;21.80;;;0.50;99.90;;;;;;5036944;28;20052;-64
2022/12/04 03:04:56;;;;;;;52.42;31.13;;;0.40;99.90;;;;;;5056131;28;20055;-63
2022/12/04 03:07:33;;;;;;;50.10;26.67;;;0.40;99.90;;;;;;5055213;28;20426;-64
2022/12/04 03:10:14;;;;;;;59.63;35.38;;;0.40;99.90;;;;;;5057300;28;20033;-64
2022/12/04 03:13:29;;;;;;;38.28;21.88;;;0.50;99.90;;;;;;5024574;28;20048;-64
2022/12/04 03:16:09;;;;;;;51.47;31.65;;;0.40;99.90;;;;;;5032191;28;20098;-64
2022/12/04 03:18:41;;;;;;;51.05;29.95;;;0.40;99.90;;;;;;5021965;28;20515;-64
2022/12/04 03:21:15;;;;;;;55.75;35.45;;;0.30;99.90;;;;;;5023393;28;20048;-65
2022/12/04 03:23:47;;;;;;;43.60;22.83;;;0.40;99.90;;;;;;5036876;28;20055;-64
2022/12/04 03:26:29;;;;;;;42.40;23.00;;;0.40;99.90;;;;;;5053310;28;20498;-66
2022/12/04 03:29:07;;;;;;;41.30;24.88;;;0.50;99.90;;;;;;5037134;28;20128;-65
2022/12/04 03:31:43;;;;;;;57.30;34.33;;;0.50;99.90;;;;;;5035368;28;20067;-64
2022/12/04 03:34:14;;;;;;;53.80;33.78;;;0.30;99.90;;;;;;5037859;28;20041;-64
2022/12/04 03:36:52;;;;;;;46.47;24.40;;;0.40;99.90;;;;;;5037738;28;20148;-64
2022/12/04 03:39:31;;;;;;;47.67;27.38;;;0.40;99.90;;;;;;5055092;28;20858;-65
2022/12/04 03:42:12;;;;;;;59.22;34.97;;;0.30;99.90;;;;;;5038091;28;20045;-65
2022/12/04 03:44:44;;;;;;;57.95;34.80;;;0.30;99.90;;;;;;5037002;28;20295;-65
2022/12/04 03:47:20;;;;;;;48.22;26.85;;;0.40;99.90;;;;;;5033217;28;20045;-64
2022/12/04 03:49:56;;;;;;;37.78;20.95;;;0.30;99.90;;;;;;5056751;28;20153;-64
2022/12/04 03:52:33;;;;;;;39.30;22.88;;;0.40;99.90;;;;;;5038938;28;20169;-64
2022/12/04 03:55:12;;;;;;;49.60;30.60;;;0.40;99.90;;;;;;5013020;28;20041;-64
2022/12/04 03:57:41;;;;;;;40.95;22.65;;;0.40;99.90;;;;;;5039701;28;20127;-64
2022/12/04 04:00:13;;;;;;;59.40;33.80;;;0.40;99.90;;;;;;5039885;28;20043;-64
2022/12/04 04:02:54;;;;;;;61.85;36.05;;;0.30;99.90;;;;;;5051759;28;20053;-63
2022/12/04 04:05:25;;;;;;;50.97;27.88;;;0.20;99.90;;;;;;5056227;28;20041;-63
2022/12/04 04:10:49;;;;;;;47.58;27.20;;;0.30;99.90;;;;;;5034931;28;20048;-64
2022/12/04 04:24:35;;;;;;;63.53;37.20;;;0.30;99.90;;;;;;5038267;28;20112;-65
2022/12/04 04:27:01;;;;;;;66.20;38.45;;;0.20;99.90;;;;;;5036009;28;20044;-66
2022/12/04 04:29:26;;;;;;;48.95;25.92;;;0.30;99.90;;;;;;5020901;28;20083;-65
2022/12/04 04:32:07;;;;;;;62.90;37.28;;;0.30;99.90;;;;;;5056744;28;20135;-66
2022/12/04 04:34:38;;;;;;;60.08;34.83;;;0.20;99.90;;;;;;5050227;28;20439;-65
2022/12/04 04:37:27;;;;;;;62.38;36.10;;;0.20;99.90;;;;;;5037285;28;20484;-64
2022/12/04 04:39:56;;;;;;;62.45;37.33;;;0.20;99.90;;;;;;5019820;28;20036;-65
2022/12/04 04:42:25;;;;;;;69.25;40.90;;;0.20;99.90;;;;;;5034445;28;21343;-66
2022/12/04 04:44:59;;;;;;;67.80;39.42;;;0.30;99.90;;;;;;5055737;28;20411;-65
2022/12/04 04:47:29;;;;;;;;;;;0.10;99.90;;;;;;5037677;28;20274;-65
2022/12/04 04:49:57;;;;;;;59.75;34.22;;;0.20;99.90;;;;;;5034121;28;19950;-65
2022/12/04 04:52:23;;;;;;;62.85;35.55;;;0.40;99.90;;;;;;5057465;28;20060;-64
2022/12/04 04:54:49;;;;;;;60.97;37.58;;;0.30;99.90;;;;;;5038000;28;20133;-63
2022/12/04 04:57:29;;;;;;;69.30;42.17;;;0.40;99.90;;;;;;5055302;28;20409;-64
2022/12/04 04:59:55;;;;;;;59.88;33.90;;;0.40;99.90;;;;;;5056429;28;20564;-64
2022/12/04 05:02:20;;;;;;;58.75;33.45;;;0.40;99.90;;;;;;5055728;28;20048;-65
2022/12/04 05:04:49;;;;;;;64.40;40.80;;;0.30;99.90;;;;;;5018561;28;20036;-66
2022/12/04 05:07:18;;;;;;;62.58;36.78;;;0.40;99.90;;;;;;5038859;28;20155;-65
2022/12/04 05:09:43;;;;;;;70.10;43.83;;;0.50;99.90;;;;;;5058353;28;20053;-64
2022/12/04 05:12:09;;;;;;;59.90;35.60;;;0.30;99.90;;;;;;5036903;28;20087;-65
2022/12/04 05:14:35;;;;;;;49.63;25.92;;;0.30;99.90;;;;;;5019571;28;20037;-65
2022/12/04 05:17:03;;;;;;;57.95;33.60;;;0.40;99.90;;;;;;5020721;28;20037;-63
2022/12/04 05:22:16;;;;;;;59.83;33.47;;;0.40;99.90;;;;;;5053100;28;20052;-64
2022/12/04 05:24:41;;;;;;;67.47;40.72;;;0.40;99.90;;;;;;5023188;28;20109;-64
2022/12/04 05:27:07;;;;;;;65.60;37.50;;;0.30;99.90;;;;;;5036986;28;20464;-64
2022/12/04 05:29:33;;;;;;;74.20;46.05;;;0.40;99.90;;;;;;5038122;28;20375;-65
2022/12/04 05:31:59;;;;;;;70.20;42.08;;;0.40;99.90;;;;;;5041496;28;20048;-64
2022/12/04 05:34:25;;;;;;;59.65;32.67;;;0.40;99.90;;;;;;5024564;28;20044;-67
2022/12/04 05:36:51;;;;;;;56.42;33.90;;;0.30;99.90;;;;;;5019665;28;20070;-63
2022/12/04 05:39:17;;;;;;;65.72;37.15;;;0.40;99.90;;;;;;5058638;28;20032;-64
2022/12/04 05:41:43;;;;;;;71.32;42.53;;;0.50;99.90;;;;;;5058318;28;20274;-64
2022/12/04 05:44:08;;;;;;;65.47;37.00;;;0.40;99.90;;;;;;5055819;28;20052;-65
2022/12/04 05:46:34;;;;;;;71.05;41.17;;;0.50;99.90;;;;;;5057954;28;20460;-64
2022/12/04 05:49:00;;;;;;;71.18;42.75;;;0.30;99.90;;;;;;5040021;28;20044;-64
2022/12/04 05:51:27;;;;;;;70.53;41.47;;;0.40;99.90;;;;;;5037962;28;20071;-64
2022/12/04 05:53:52;;;;;;;51.65;28.02;;;0.40;99.90;;;;;;5021047;28;20045;-63
2022/12/04 05:56:18;;;;;;;71.68;42.97;;;0.50;99.90;;;;;;5040481;28;20081;-64
2022/12/04 05:58:44;;;;;;;68.43;39.00;;;0.40;99.90;;;;;;5056988;28;20127;-63
2022/12/04 06:01:16;;;;;;;72.63;42.50;;;0.50;99.90;;;;;;5057153;28;20066;-64
2022/12/04 06:03:41;;;;;;;62.45;33.45;;;0.50;99.90;;;;;;5040247;28;20063;-63
2022/12/04 06:06:12;;;;;;;73.32;39.88;;;0.40;99.90;;;;;;5056593;28;20462;-63
2022/12/04 06:08:38;;;;;;;64.65;37.00;;;0.60;99.90;;;;;;5053277;28;20064;-64
2022/12/04 06:11:10;;;;;;;60.85;33.10;;;0.50;99.90;;;;;;5038235;28;20502;-64
2022/12/04 06:13:35;;;;;;;54.92;31.70;;;0.50;99.90;;;;;;5056369;28;20101;-63
2022/12/04 06:16:01;;;;;;;55.65;33.53;;;0.50;99.90;;;;;;5038694;28;20044;-63
2022/12/04 06:18:27;;;;;;;72.75;42.40;;;0.70;99.90;;;;;;5006056;28;20044;-64
2022/12/04 06:20:56;;;;;;;68.82;43.08;;;0.50;99.90;;;;;;5058134;28;20060;-63
2022/12/04 06:23:22;;;;;;;68.13;40.60;;;0.50;99.90;;;;;;5054818;28;20575;-64
2022/12/04 06:25:48;;;;;;;70.95;41.58;;;0.40;99.90;;;;;;5034750;28;20302;-63
2022/12/04 06:28:13;;;;;;;70.85;42.70;;;0.60;99.90;;;;;;5037118;28;20044;-64
2022/12/04 06:30:39;;;;;;;57.40;30.95;;;0.60;99.90;;;;;;5017957;28;20059;-62
2022/12/04 06:33:05;;;;;;;60.40;34.53;;;0.50;99.90;;;;;;5035944;28;20040;-64
2022/12/04 06:35:30;;;;;;;58.08;34.13;;;0.70;99.90;;;;;;5035014;28;20356;-63
2022/12/04 06:37:56;;;;;;;59.45;35.83;;;0.80;99.90;;;;;;5034308;28;20037;-64
2022/12/04 06:40:22;;;;;;;70.47;40.65;;;0.80;99.90;;;;;;5033656;28;20070;-65
2022/12/04 06:42:47;;;;;;;57.65;31.83;;;0.60;99.90;;;;;;5036849;28;20459;-64
2022/12/04 06:45:14;;;;;;;69.82;42.95;;;0.80;99.90;;;;;;5036393;28;20468;-65
2022/12/04 06:47:39;;;;;;;55.65;32.75;;;0.50;99.90;;;;;;5019536;28;20572;-64
2022/12/04 06:50:06;;;;;;;65.03;38.80;;;0.60;99.90;;;;;;5018724;28;20072;-65
2022/12/04 06:52:33;;;;;;;56.00;32.83;;;0.60;99.90;;;;;;5035942;28;20167;-63
2022/12/04 06:54:59;;;;;;;66.38;40.03;;;0.70;99.90;;;;;;5034181;28;20053;-64
2022/12/04 06:57:25;;;;;;;63.10;38.13;;;0.80;99.90;;;;;;5035161;28;21029;-63
2022/12/04 06:59:51;;;;;;;61.90;37.40;;;0.80;99.90;;;;;;5034876;28;20349;-64
2022/12/04 07:02:16;;;;;;;62.65;39.58;;;0.70;99.90;;;;;;5034687;28;20083;-63
2022/12/04 07:04:42;;;;;;;63.28;37.78;;;0.80;99.90;;;;;;5035001;28;20072;-65
2022/12/04 07:07:08;;;;;;;66.47;39.92;;;1.00;99.90;;;;;;5035185;28;20111;-64
2022/12/04 07:09:35;;;;;;;67.30;40.17;;;1.00;99.90;;;;;;5035721;28;20380;-63
2022/12/04 07:12:01;;;;;;;61.30;37.75;;;1.00;99.90;;;;;;5032064;28;20134;-63
2022/12/04 07:14:26;;;;;;;64.90;37.42;;;0.70;99.90;;;;;;5035527;28;20151;-65
2022/12/04 07:16:52;;;;;;;50.38;28.00;;;1.00;99.90;;;;;;5032907;28;20045;-65
2022/12/04 07:19:17;;;;;;;64.40;36.22;;;1.00;99.90;;;;;;5034989;28;20187;-64
2022/12/04 07:21:43;;;;;;;53.78;32.78;;;0.80;99.90;;;;;;5035049;28;20600;-64
2022/12/04 07:24:16;;;;;;;39.35;21.08;;;0.80;99.90;;;;;;5039557;28;20057;-64
2022/12/04 07:26:42;;;;;;;49.63;27.93;;;0.80;99.90;;;;;;5039063;28;20044;-64
2022/12/04 07:29:09;;;;;;;38.85;23.33;;;1.00;99.90;;;;;;5037487;28;20044;-65
2022/12/04 07:31:34;;;;;;;53.05;31.20;;;1.10;99.90;;;;;;5054308;28;20094;-65
2022/12/04 07:34:00;;;;;;;40.65;23.00;;;0.90;99.90;;;;;;5036988;28;20056;-65
2022/12/04 07:36:27;;;;;;;49.85;29.65;;;0.90;99.90;;;;;;5038027;28;20055;-64
2022/12/04 07:38:54;;;;;;;51.65;29.27;;;1.10;99.90;;;;;;5037238;28;20044;-64
2022/12/04 07:41:20;;;;;;;45.75;26.33;;;1.00;99.90;;;;;;5027761;28;20048;-63
2022/12/04 07:43:49;;;;;;;35.42;21.70;;;1.20;99.90;;;;;;5035405;28;20087;-63
2022/12/04 07:46:18;;;;;;;49.42;29.90;;;1.20;99.90;;;;;;5054616;28;20115;-63
2022/12/04 07:48:45;;;;;;;52.60;32.13;;;1.20;99.90;;;;;;5035446;28;20371;-64
2022/12/04 07:51:13;;;;;;;52.67;32.30;;;1.40;99.90;;;;;;5017774;28;20439;-63
2022/12/04 07:53:40;;;;;;;39.38;22.92;;;1.10;99.90;;;;;;5055866;28;20044;-63
2022/12/04 07:56:09;;;;;;;57.53;34.83;;;1.40;99.90;;;;;;5002872;28;20056;-65
2022/12/04 07:58:35;;;;;;;60.00;36.92;;;1.20;99.90;;;;;;5037327;28;20188;-63
2022/12/04 08:01:13;;;;;;;54.78;32.28;;;1.30;99.90;;;;;;5054366;28;20044;-64
2022/12/04 08:03:41;;;;;;;46.13;29.17;;;1.10;99.90;;;;;;5053352;28;20635;-65
2022/12/04 08:06:07;;;;;;;53.42;34.85;;;1.20;99.90;;;;;;5055677;28;20086;-64
2022/12/04 08:08:36;;;;;;;52.60;34.28;;;1.20;99.90;;;;;;5037856;28;20588;-65
2022/12/04 08:11:10;;;;;;;52.97;32.97;;;1.30;99.90;;;;;;5018943;28;20548;-63
2022/12/04 08:13:36;;;;;;;50.47;31.40;;;1.20;99.90;;;;;;5054632;28;20043;-64
2022/12/04 08:16:04;;;;;;;42.20;26.25;;;1.20;99.90;;;;;;5018557;28;20041;-66
2022/12/04 08:18:29;;;;;;;51.17;29.08;;;1.20;99.90;;;;;;5054050;28;20500;-66
2022/12/04 08:21:04;;;;;;;48.97;30.90;;;1.50;99.90;;;;;;5021176;28;20490;-64
2022/12/04 08:23:30;;;;;;;48.90;31.50;;;1.20;99.90;;;;;;5044157;28;20056;-66
2022/12/04 08:25:59;;;;;;;44.60;28.55;;;1.40;99.90;;;;;;5035928;28;20529;-64
2022/12/04 08:28:24;;;;;;;54.50;34.15;;;1.30;99.90;;;;;;5036930;28;20033;-64
2022/12/04 08:30:50;;;;;;;49.95;31.00;;;1.50;99.90;;;;;;5051875;28;20322;-65
2022/12/04 08:33:16;;;;;;;50.33;30.50;;;1.40;99.90;;;;;;5054706;28;20505;-65
2022/12/04 08:35:44;;;;;;;44.22;27.20;;;1.70;99.90;;;;;;5038070;28;20041;-65
2022/12/04 08:38:10;;;;;;;51.58;32.65;;;1.50;99.90;;;;;;5056169;28;20469;-64
2022/12/04 08:40:36;;;;;;;45.58;28.48;;;1.70;99.90;;;;;;5037882;28;20041;-63
2022/12/04 08:43:01;;;;;;;38.10;21.73;;;1.70;99.90;;;;;;5037116;28;20044;-64
2022/12/04 08:45:27;;;;;;;48.60;29.48;;;1.70;99.90;;;;;;5056337;28;20094;-64
2022/12/04 08:47:53;;;;;;;46.03;27.40;;;1.60;99.90;;;;;;5052953;28;20267;-63
2022/12/04 08:50:18;;;;;;;48.63;32.28;;;1.60;99.90;;;;;;5054917;28;20037;-64
2022/12/04 08:52:44;;;;;;;45.92;29.88;;;1.80;99.90;;;;;;5055569;28;20048;-63
2022/12/04 08:55:10;;;;;;;49.35;32.03;;;1.70;99.90;;;;;;5055640;28;20032;-63
2022/12/04 08:57:35;;;;;;;48.85;31.98;;;1.80;99.90;;;;;;5054009;28;20413;-64
2022/12/04 09:00:01;;;;;;;46.05;29.17;;;1.80;99.90;;;;;;5054698;28;20072;-66
2022/12/04 09:02:27;;;;;;;37.25;22.23;;;2.00;99.90;;;;;;5034192;28;20044;-64
2022/12/04 09:04:56;;;;;;;43.55;29.52;;;1.90;99.90;;;;;;5008680;28;20040;-65
2022/12/04 09:07:22;;;;;;;36.92;23.10;;;2.00;99.90;;;;;;5036967;28;20063;-66
2022/12/04 09:09:47;;;;;;;38.70;26.20;;;2.00;99.90;;;;;;5036951;28;20509;-64
2022/12/04 09:12:13;;;;;;;43.20;28.65;;;2.10;99.90;;;;;;5035687;28;20032;-66
2022/12/04 09:14:39;;;;;;;38.50;24.85;;;2.10;99.90;;;;;;5035593;28;20465;-65
2022/12/04 09:17:04;;;;;;;34.67;20.55;;;2.00;99.90;;;;;;5036080;28;20110;-64
2022/12/04 09:19:34;;;;;;;45.08;26.95;;;2.10;99.90;;;;;;5034126;28;20036;-63
2022/12/04 09:21:59;;;;;;;38.03;21.13;;;2.00;99.90;;;;;;5053399;28;20119;-64
2022/12/04 09:24:25;;;;;;;42.70;27.83;;;2.30;99.90;;;;;;5016390;28;20338;-64
2022/12/04 09:26:51;;;;;;;40.67;25.30;;;2.20;99.90;;;;;;5016564;28;20053;-66
2022/12/04 09:29:17;;;;;;;47.35;30.98;;;2.00;99.90;;;;;;5014853;28;20064;-63
2022/12/04 09:31:42;;;;;;;40.25;24.15;;;2.20;99.90;;;;;;5006078;28;20053;-63
2022/12/04 09:34:08;;;;;;;38.42;23.50;;;2.20;99.90;;;;;;5035755;28;20121;-63
2022/12/04 09:36:34;;;;;;;46.65;27.17;;;2.10;99.90;;;;;;5006540;28;20441;-65
2022/12/04 09:38:59;;;;;;;43.42;27.73;;;2.20;99.90;;;;;;5015952;28;20711;-63
2022/12/04 09:41:48;;;;;;;43.30;29.35;;;2.20;99.90;;;;;;4999102;28;20048;-64
2022/12/04 09:44:25;;;;;;;41.55;25.90;;;2.10;99.90;;;;;;5023304;28;20076;-64
2022/12/04 09:46:59;;;;;;;42.63;28.15;;;2.10;99.90;;;;;;5035279;28;20755;-65
2022/12/04 09:49:34;;;;;;;;;;;2.10;99.90;;;;;;5033903;28;20467;-66
2022/12/04 09:52:05;;;;;;;38.05;25.25;;;2.10;99.90;;;;;;5030963;28;20099;-64
2022/12/04 09:54:39;;;;;;;31.63;19.33;;;2.20;99.90;;;;;;5034430;28;20199;-65
2022/12/04 09:57:15;;;;;;;31.08;18.80;;;2.30;99.90;;;;;;5033697;28;20083;-66
2022/12/04 09:59:42;;;;;;;37.22;24.45;;;2.20;99.90;;;;;;5013621;28;20486;-65
2022/12/04 10:02:47;;;;;;;37.83;25.08;;;2.30;99.90;;;;;;5032905;28;20315;-65
2022/12/04 10:05:20;;;;;;;35.53;24.73;;;2.30;99.90;;;;;;4971598;28;20068;-66
2022/12/04 10:07:55;;;;;;;35.65;23.80;;;2.40;99.90;;;;;;5013045;28;20179;-66
2022/12/04 10:10:41;;;;;;;36.30;25.80;;;2.30;99.90;;;;;;5030056;28;20047;-65
2022/12/04 10:13:35;;;;;;;25.60;14.48;;;2.50;99.90;;;;;;5013425;28;20046;-65
2022/12/04 10:16:43;;;;;;;22.65;13.25;;;2.50;99.90;;;;;;5030393;28;20474;-65
2022/12/04 10:19:12;;;;;;;32.47;21.23;;;2.50;99.90;;;;;;4937505;28;20085;-65
2022/12/04 10:22:02;;;;;;;38.53;24.35;;;2.50;99.90;;;;;;4991473;28;20140;-64
2022/12/04 10:24:42;;;;;;;33.33;22.67;;;2.50;99.90;;;;;;5032263;28;20052;-64
2022/12/04 10:27:18;;;;;;;30.27;20.30;;;2.60;99.90;;;;;;5034981;28;20560;-64
2022/12/04 10:29:48;;;;;;;31.10;21.17;;;2.60;99.90;;;;;;5034144;28;20083;-67
2022/12/04 10:32:19;;;;;;;33.35;21.88;;;2.70;99.90;;;;;;5032727;28;20049;-63
2022/12/04 10:34:47;;;;;;;35.15;23.13;;;2.60;99.90;;;;;;5033930;28;20040;-64
2022/12/04 10:37:14;;;;;;;22.33;14.75;;;2.70;99.90;;;;;;5022970;28;20094;-65
2022/12/04 10:40:15;;;;;;;30.55;20.95;;;2.60;99.90;;;;;;5032431;28;20131;-65
2022/12/04 10:42:56;;;;;;;32.88;23.08;;;2.70;99.90;;;;;;5037204;28;20053;-64
2022/12/04 10:45:22;;;;;;;25.13;17.35;;;2.70;99.90;;;;;;5037444;28;20048;-65
2022/12/04 10:47:49;;;;;;;30.92;18.65;;;2.70;99.90;;;;;;5031552;28;20055;-64
2022/12/04 10:50:17;;;;;;;32.63;22.77;;;2.70;99.90;;;;;;5031605;28;20037;-63
2022/12/04 10:52:44;;;;;;;34.13;23.50;;;2.70;99.90;;;;;;5030990;28;20072;-65
2022/12/04 10:55:11;;;;;;;33.25;23.08;;;2.60;99.90;;;;;;5014906;28;20080;-65
2022/12/04 10:57:40;;;;;;;39.47;25.45;;;2.70;99.90;;;;;;5017055;28;20036;-66
2022/12/04 11:00:25;;;;;;;36.15;22.58;;;2.70;99.90;;;;;;5016297;28;20505;-66
2022/12/04 11:02:53;;;;;;;31.50;18.65;;;2.80;99.90;;;;;;5033190;28;20342;-66
2022/12/04 11:05:36;;;;;;;35.88;23.38;;;2.70;99.90;;;;;;5032727;28;20041;-66
2022/12/04 11:08:05;;;;;;;30.38;20.83;;;2.80;99.90;;;;;;5034053;28;20061;-66
2022/12/04 11:10:42;;;;;;;28.77;17.90;;;2.80;99.90;;;;;;5029134;28;20534;-65
2022/12/04 11:13:16;;;;;;;33.28;21.50;;;2.70;99.90;;;;;;5032822;28;20041;-65
2022/12/04 11:15:48;;;;;;;34.22;25.02;;;2.70;99.90;;;;;;5032812;28;20428;-65
2022/12/04 11:18:20;;;;;;;34.45;23.42;;;2.80;99.90;;;;;;5036396;28;20065;-66
2022/12/04 11:21:14;;;;;;;34.95;24.15;;;2.70;99.90;;;;;;5035927;28;20056;-65
2022/12/04 11:23:46;;;;;;;31.70;20.98;;;2.70;99.90;;;;;;4998799;28;20087;-65
2022/12/04 11:26:13;;;;;;;32.42;22.00;;;2.70;99.90;;;;;;5028561;28;20044;-66
2022/12/04 11:28:43;;;;;;;32.03;21.67;;;2.80;99.90;;;;;;5032289;28;20441;-66
2022/12/04 11:31:16;;;;;;;31.35;20.63;;;2.80;99.90;;;;;;5031313;28;20272;-66
2022/12/04 11:33:45;;;;;;;32.38;21.58;;;2.70;99.90;;;;;;5029947;28;20767;-64
2022/12/04 11:36:39;;;;;;;32.28;22.23;;;2.80;99.90;;;;;;5031931;28;20028;-63
2022/12/04 11:39:26;;;;;;;26.92;17.60;;;2.70;99.90;;;;;;5033895;28;20036;-64
2022/12/04 11:42:15;;;;;;;31.02;21.90;;;2.80;99.90;;;;;;5030099;28;20041;-63
2022/12/04 11:44:59;;;;;;;30.63;20.98;;;2.90;99.90;;;;;;5036794;28;20053;-64
2022/12/04 11:47:29;;;;;;;;;;;2.90;99.90;;;;;;5019257;28;20064;-63
2022/12/04 11:50:25;;;;;;;29.10;19.70;;;2.80;99.90;;;;;;5035986;28;19920;-64
2022/12/04 11:53:10;;;;;;;28.02;19.38;;;3.00;99.90;;;;;;5029813;28;20049;-65
2022/12/04 11:56:02;;;;;;;28.65;20.30;;;2.90;99.90;;;;;;5033005;28;20829;-65
2022/12/04 11:58:57;;;;;;;23.92;16.98;;;2.90;99.90;;;;;;5034216;28;20078;-63
2022/12/04 12:01:39;;;;;;;30.55;21.20;;;2.80;99.90;;;;;;5036077;28;20045;-64
2022/12/04 12:04:04;;;;;;;28.38;19.70;;;2.90;99.90;;;;;;5036913;28;20130;-64
2022/12/04 12:06:59;;;;;;;33.10;21.30;;;2.90;99.90;;;;;;5036010;28;20075;-65
2022/12/04 12:09:29;;;;;;;29.25;18.42;;;2.90;99.90;;;;;;4978256;28;20060;-64
2022/12/04 12:12:20;;;;;;;25.83;15.75;;;2.90;99.90;;;;;;5029646;28;20083;-64
2022/12/04 12:15:44;;;;;;;24.52;15.27;;;2.80;99.90;;;;;;5032110;28;20123;-65
2022/12/04 12:18:33;;;;;;;29.42;17.15;;;2.80;99.90;;;;;;5004602;28;20052;-65
2022/12/04 12:21:14;;;;;;;26.30;14.55;;;2.90;99.90;;;;;;5002753;28;20051;-64
2022/12/04 12:23:46;;;;;;;27.00;17.90;;;2.90;99.90;;;;;;5035672;28;20045;-65
2022/12/04 12:26:14;;;;;;;32.20;20.60;;;2.80;99.90;;;;;;5012299;28;20605;-65
2022/12/04 12:28:46;;;;;;;33.25;19.90;;;2.80;99.90;;;;;;4988555;28;20037;-66
2022/12/04 12:31:11;;;;;;;29.63;18.65;;;2.90;99.90;;;;;;5011643;28;20053;-66
2022/12/04 12:34:07;;;;;;;30.83;19.88;;;3.00;99.90;;;;;;5009365;28;20099;-66
2022/12/04 12:36:42;;;;;;;29.92;19.27;;;2.90;99.90;;;;;;5010269;28;20493;-66
2022/12/04 12:39:23;;;;;;;30.08;17.80;;;3.00;99.90;;;;;;5009623;28;20604;-63
2022/12/04 12:41:57;;;;;;;15.23;9.05;;;3.00;99.90;;;;;;5009013;28;20073;-63
2022/12/04 12:44:33;;;;;;;;;;;3.10;99.90;;;;;;5010031;28;20049;-64
2022/12/04 12:47:18;;;;;;;34.65;20.45;;;3.00;99.90;;;;;;5012623;28;19921;-64
2022/12/04 12:50:06;;;;;;;29.00;16.42;;;3.10;99.90;;;;;;5007182;28;20041;-65
2022/12/04 12:52:44;;;;;;;34.30;22.30;;;3.00;99.90;;;;;;5008470;28;20061;-64
2022/12/04 12:55:24;;;;;;;27.15;16.63;;;3.10;99.90;;;;;;5012413;28;20052;-64
2022/12/04 12:58:16;;;;;;;30.13;17.98;;;3.10;99.90;;;;;;5012220;28;20042;-64
2022/12/04 13:00:58;;;;;;;36.30;21.80;;;3.20;99.90;;;;;;5009736;28;20201;-64
2022/12/04 13:03:51;;;;;;;36.70;22.55;;;3.10;99.90;;;;;;5012556;28;20266;-64
2022/12/04 13:06:38;;;;;;;26.73;16.60;;;3.10;99.90;;;;;;5013877;28;20046;-63
2022/12/04 13:09:20;;;;;;;29.05;18.85;;;3.20;99.90;;;;;;5013362;28;20096;-64
2022/12/04 13:11:53;;;;;;;33.83;22.10;;;3.20;99.90;;;;;;5009317;28;20128;-65
2022/12/04 13:14:18;;;;;;;38.15;22.67;;;3.10;99.90;;;;;;5012525;28;20081;-65
2022/12/04 13:16:54;;;;;;;28.67;17.75;;;3.10;99.90;;;;;;5009624;28;20061;-65
2022/12/04 13:19:30;;;;;;;21.13;12.55;;;3.30;99.90;;;;;;5013160;28;20045;-64